KOMK/OMK METAR and TAF weather

Enter ICAO airport designator
Station Type Date Time Source
KOMK METAR 2022/07/03 14:53 UTC NOAA

KOMK 031453Z AUTO 00000KT 10SM OVC100 21/12 A2977 RMK AO2 SLP072 T02110117 51008


Station Type Date Time Source
KOMK Decoded METAR 2022/07/03 14:53 UTC NOAA

OMAK AIRPORT, WA, United States (KOMK) 48-28N 119-31W 395M
Jul 03, 2022 - 10:53 AM EDT / 2022.07.03 1453 UTC
Wind: Calm:0
Visibility: 10 mile(s):0
Sky conditions: overcast
Temperature: 70.0 F (21.1 C)
Dew Point: 53.1 F (11.7 C)
Relative Humidity: 54%
Pressure (altimeter): 29.77 in. Hg (1008 hPa)
Pressure tendency: 0.02 inches (0.8 hPa) higher than three hours ago
ob: KOMK 031453Z AUTO 00000KT 10SM OVC100 21/12 A2977 RMK AO2 SLP072 T02110117 51008
cycle: 15

Station Type Date Time Source
KOMK TAF UTC NOAA

Error!

Example: see airport list